Time;durP1;ratioP1;P1;durP2;ratioP2;P2;SDS_P1;SDS_P2;PMS_P1;PMS_P2;Temp;Humidity;BMP_temperature;BMP_pressure;BME280_temperature;BME280_humidity;BME280_pressure;Samples;Min_cycle;Max_cycle;Signal;HPM_P1;HPM_P2
2023/08/27 00:00:14;;;;;;;;;;;21.50;70.50;;;20.85;60.84;99207.41;10370207;28;1914;-71
2023/08/27 00:05:10;;;;;;;;;;;21.50;70.60;;;20.85;60.64;99202.97;10370245;28;799;-71
2023/08/27 00:10:05;;;;;;;;;;;21.50;70.60;;;20.84;60.84;99195.97;10369300;28;921;-72
2023/08/27 00:15:01;;;;;;;;;;;21.50;70.60;;;20.82;60.84;99179.31;10370297;28;807;-72
2023/08/27 00:19:57;;;;;;;;;;;21.50;70.60;;;20.84;60.90;99209.22;10369526;28;1910;-71
2023/08/27 00:24:52;;;;;;;;;;;21.50;70.60;;;20.82;60.99;99179.31;10370259;28;883;-72
2023/08/27 00:29:48;;;;;;;;;;;21.50;70.60;;;20.82;60.98;99167.88;10368059;28;1320;-72
2023/08/27 00:34:43;;;;;;;;;;;21.50;70.70;;;20.82;60.91;99186.44;10369708;28;866;-72
2023/08/27 00:39:38;;;;;;;;;;;21.40;70.50;;;20.82;60.92;99152.00;10368691;28;945;-72
2023/08/27 00:44:34;;;;;;;;;;;21.40;70.60;;;20.81;60.90;99124.66;10368476;28;1906;-72
2023/08/27 00:49:29;;;;;;;;;;;21.40;70.50;;;20.81;60.98;99110.56;10368318;28;771;-72
2023/08/27 00:54:25;;;;;;;;;;;21.40;70.60;;;20.81;60.98;99121.19;10368780;28;823;-72
2023/08/27 00:59:20;;;;;;;;;;;21.40;70.50;;;20.80;60.88;99117.66;10368626;28;894;-72
2023/08/27 01:04:15;;;;;;;;;;;21.40;70.50;;;20.79;61.07;99102.72;10367150;28;1969;-72
2023/08/27 01:09:12;;;;;;;;;;;21.40;70.60;;;20.79;60.99;99089.47;10366892;28;902;-72
2023/08/27 01:14:08;;;;;;;;;;;21.40;70.50;;;20.78;60.96;99093.94;10367384;28;950;-72
2023/08/27 01:19:03;;;;;;;;;;;21.40;70.60;;;20.78;61.10;99106.34;10367325;28;932;-72
2023/08/27 01:23:59;;;;;;;;;;;21.40;70.60;;;20.78;60.96;99117.78;10367895;28;1906;-72
2023/08/27 01:28:54;;;;;;;;;;;21.40;70.60;;;20.78;61.08;99124.88;10366180;28;1227;-72
2023/08/27 01:33:51;;;;;;;;;;;21.40;70.70;;;20.76;60.89;99114.38;10368386;28;887;-72
2023/08/27 01:38:47;;;;;;;;;;;21.40;70.70;;;20.76;60.91;99101.13;10367452;28;862;-72
2023/08/27 01:43:42;;;;;;;;;;;21.40;70.70;;;20.75;60.90;99114.44;10366433;28;1969;-72
2023/08/27 01:48:38;;;;;;;;;;;21.40;70.70;;;20.75;61.05;99110.03;10366971;28;990;-72
2023/08/27 01:53:33;;;;;;;;;;;21.40;70.70;;;20.74;60.98;99110.97;10366652;28;969;-72
2023/08/27 01:58:29;;;;;;;;;;;21.40;70.70;;;20.74;60.97;99116.25;10366812;28;925;-72
2023/08/27 02:03:24;;;;;;;;;;;21.40;70.80;;;20.73;60.93;99103.97;10366101;28;1902;-72
2023/08/27 02:08:19;;;;;;;;;;;21.40;70.70;;;20.73;61.16;99084.59;10366009;28;882;-72
2023/08/27 02:13:15;;;;;;;;;;;21.40;70.70;;;20.73;61.17;99095.19;10366121;28;1008;-72
2023/08/27 02:18:10;;;;;;;;;;;21.40;70.70;;;20.72;60.95;99096.13;10365308;28;933;-72
2023/08/27 02:23:06;;;;;;;;;;;21.40;70.80;;;20.72;61.11;99077.59;10365748;28;1906;-71
2023/08/27 02:28:01;;;;;;;;;;;21.40;70.80;;;20.70;61.01;99083.00;10347517;28;1336;-72
2023/08/27 02:32:57;;;;;;;;;;;21.30;70.70;;;20.70;61.03;99076.84;10366589;28;850;-72
2023/08/27 02:37:52;;;;;;;;;;;21.30;70.70;;;20.71;60.99;99089.13;10365548;28;858;-72
2023/08/27 02:42:48;;;;;;;;;;;21.30;70.70;;;20.69;60.96;99068.03;10365963;28;1913;-72
2023/08/27 02:47:43;;;;;;;;;;;21.30;70.70;;;20.68;61.00;99058.41;10365277;28;1005;-72
2023/08/27 02:52:39;;;;;;;;;;;21.30;70.70;;;20.68;61.21;99053.13;10367345;28;792;-72
2023/08/27 02:57:34;;;;;;;;;;;21.30;70.70;;;20.68;60.98;99055.75;10373407;28;892;-72
2023/08/27 03:02:30;;;;;;;;;;;21.30;70.80;;;20.67;61.19;99054.06;10373140;28;1966;-72
2023/08/27 03:07:25;;;;;;;;;;;21.30;70.80;;;20.66;61.22;99060.31;10372466;28;945;-72
2023/08/27 03:12:20;;;;;;;;;;;21.30;70.80;;;20.65;61.06;99048.03;10372850;28;879;-72
2023/08/27 03:17:16;;;;;;;;;;;21.30;70.80;;;20.65;61.20;99040.09;10371484;28;961;-72
2023/08/27 03:22:11;;;;;;;;;;;21.30;70.70;;;20.64;61.13;99025.13;10371683;28;1901;-72
2023/08/27 03:27:07;;;;;;;;;;;21.30;70.80;;;20.63;61.06;99030.53;10372299;28;881;-72
2023/08/27 03:32:02;;;;;;;;;;;21.30;70.80;;;20.63;61.22;99028.75;10370788;28;1096;-72
2023/08/27 03:36:57;;;;;;;;;;;21.30;70.80;;;20.63;61.22;99038.50;10371289;28;902;-72
2023/08/27 03:41:53;;;;;;;;;;;21.30;70.90;;;20.62;61.29;99037.66;10371404;28;1975;-72
2023/08/27 03:46:48;;;;;;;;;;;21.20;70.80;;;20.61;61.09;99045.69;10371702;28;826;-72
2023/08/27 03:51:44;;;;;;;;;;;21.30;70.90;;;20.60;61.22;99042.19;10370660;28;776;-72
2023/08/27 03:56:39;;;;;;;;;;;21.20;70.70;;;20.60;61.11;99044.00;10369928;28;962;-72
2023/08/27 04:01:35;;;;;;;;;;;21.20;70.80;;;20.60;61.24;99055.44;10370258;28;2002;-72
2023/08/27 04:06:30;;;;;;;;;;;21.20;70.90;;;20.58;61.16;99039.63;10369174;28;875;-72
2023/08/27 04:11:25;;;;;;;;;;;21.20;70.80;;;20.58;61.20;99041.44;10370081;28;925;-72
2023/08/27 04:16:21;;;;;;;;;;;21.20;70.90;;;20.57;61.24;99030.00;10369811;28;788;-72
2023/08/27 04:21:16;;;;;;;;;;;21.20;70.80;;;20.55;61.28;99031.88;10369795;28;1973;-72
2023/08/27 04:26:12;;;;;;;;;;;21.20;70.90;;;20.57;61.25;99045.03;10369996;28;839;-72
2023/08/27 04:31:08;;;;;;;;;;;21.20;70.90;;;20.55;61.27;99028.41;10369754;28;1132;-72
2023/08/27 04:36:03;;;;;;;;;;;21.20;70.90;;;20.54;61.09;99019.63;10369786;28;905;-72
2023/08/27 04:40:59;;;;;;;;;;;21.20;70.90;;;20.54;61.16;99024.03;10368684;28;1905;-71
2023/08/27 04:45:54;;;;;;;;;;;21.20;71.00;;;20.54;61.33;99029.34;10369244;28;868;-72
2023/08/27 04:50:50;;;;;;;;;;;21.20;71.10;;;20.54;61.30;99024.03;10368159;28;896;-71
2023/08/27 04:55:45;;;;;;;;;;;21.20;71.00;;;20.53;61.21;99024.97;10368728;28;819;-70
2023/08/27 05:00:42;;;;;;;;;;;21.20;71.00;;;20.52;61.29;99016.19;10367386;28;1976;-70
2023/08/27 05:05:38;;;;;;;;;;;21.20;71.10;;;20.52;61.27;99026.78;10365923;28;1140;-71
2023/08/27 05:10:33;;;;;;;;;;;21.10;70.90;;;20.50;61.31;99026.00;10367390;28;807;-71
2023/08/27 05:15:28;;;;;;;;;;;21.10;70.90;;;20.49;61.40;99007.59;10366868;28;782;-71
2023/08/27 05:20:24;;;;;;;;;;;21.10;71.00;;;20.49;61.34;99016.38;10367363;28;1910;-70
2023/08/27 05:25:19;;;;;;;;;;;21.10;71.10;;;20.49;61.44;99012.91;10367295;28;788;-71
2023/08/27 05:30:14;;;;;;;;;;;21.10;71.00;;;20.48;61.52;98995.31;10367313;28;1332;-71
2023/08/27 05:35:10;;;;;;;;;;;21.10;71.10;;;20.48;61.38;98992.66;10365775;28;846;-69
2023/08/27 05:40:05;;;;;;;;;;;21.10;71.10;;;20.47;61.33;98985.69;10367181;28;1917;-71
2023/08/27 05:45:01;;;;;;;;;;;21.10;71.20;;;20.47;61.39;98977.72;10366691;28;850;-71
2023/08/27 05:49:56;;;;;;;;;;;21.10;71.20;;;20.46;61.38;98976.00;10366360;28;1372;-70
2023/08/27 05:54:52;;;;;;;;;;;21.10;71.20;;;20.46;61.57;98978.66;10366902;28;858;-71
2023/08/27 05:59:47;;;;;;;;;;;21.10;71.30;;;20.44;61.43;98976.13;10365705;28;887;-68
2023/08/27 06:04:42;;;;;;;;;;;21.10;71.40;;;20.44;61.52;98985.88;10366695;28;1953;-69
2023/08/27 06:09:38;;;;;;;;;;;21.10;71.30;;;20.43;61.59;98984.16;10366106;28;814;-69
2023/08/27 06:14:33;;;;;;;;;;;21.10;71.40;;;20.42;61.58;98993.06;10365983;28;815;-70
2023/08/27 06:19:29;;;;;;;;;;;21.10;71.40;;;20.42;61.43;99020.38;10367090;28;975;-70
2023/08/27 06:24:24;;;;;;;;;;;21.10;71.40;;;20.43;61.49;99042.41;10365748;28;1969;-70
2023/08/27 06:29:19;;;;;;;;;;;21.10;71.40;;;20.42;61.49;99046.00;10366769;28;1224;-69
2023/08/27 06:34:15;;;;;;;;;;;21.10;71.60;;;20.40;61.61;99047.91;10372769;28;1128;-70
2023/08/27 06:39:10;;;;;;;;;;;21.00;71.50;;;20.39;61.55;99056.81;10373666;28;843;-69
2023/08/27 06:44:05;;;;;;;;;;;21.00;71.70;;;20.39;61.62;99060.28;10373625;28;1923;-70
2023/08/27 06:49:01;;;;;;;;;;;21.00;71.70;;;20.39;61.78;99062.94;10373178;28;894;-71
2023/08/27 06:53:56;;;;;;;;;;;21.00;72.00;;;20.39;61.76;99057.66;10372995;28;1001;-70
2023/08/27 06:58:52;;;;;;;;;;;21.00;71.90;;;20.38;61.86;99070.97;10372214;28;910;-69
2023/08/27 07:03:47;;;;;;;;;;;21.00;72.00;;;20.36;61.82;99060.50;10372463;28;1959;-71
2023/08/27 07:08:42;;;;;;;;;;;21.00;72.20;;;20.35;61.91;99050.84;10372516;28;965;-71
2023/08/27 07:13:38;;;;;;;;;;;21.00;72.30;;;20.34;61.93;99054.44;10372327;28;790;-71
2023/08/27 07:18:33;;;;;;;;;;;21.00;72.50;;;20.33;62.03;99064.19;10371484;28;847;-71
2023/08/27 07:23:29;;;;;;;;;;;21.00;72.60;;;20.34;61.97;99073.81;10371771;28;1953;-71
2023/08/27 07:28:24;;;;;;;;;;;20.90;72.70;;;20.33;62.04;99095.06;10371488;28;1472;-71
2023/08/27 07:33:19;;;;;;;;;;;20.90;72.70;;;20.33;62.13;99074.78;10371677;28;917;-67
2023/08/27 07:38:15;;;;;;;;;;;20.90;72.80;;;20.32;62.14;99078.34;10371348;28;843;-71
2023/08/27 07:43:10;;;;;;;;;;;20.90;72.80;;;20.31;62.13;99063.44;10371017;28;1902;-71
2023/08/27 07:48:07;;;;;;;;;;;20.90;72.90;;;20.32;62.20;99057.19;10371252;28;1028;-71
2023/08/27 07:53:02;;;;;;;;;;;21.00;72.90;;;20.34;62.13;99047.34;10371232;28;955;-70
2023/08/27 07:57:58;;;;;;;;;;;20.90;72.70;;;20.36;62.09;99060.50;10370589;28;933;-70
2023/08/27 08:02:53;;;;;;;;;;;20.90;72.80;;;20.35;62.30;99062.28;10370484;28;1921;-70
2023/08/27 08:07:49;;;;;;;;;;;20.90;72.70;;;20.36;62.12;99065.78;10369581;28;886;-70
2023/08/27 08:12:45;;;;;;;;;;;20.90;72.70;;;20.36;62.02;99066.63;10369797;28;865;-70
2023/08/27 08:17:40;;;;;;;;;;;20.90;72.80;;;20.38;62.10;99076.25;10369743;28;933;-70
2023/08/27 08:22:35;;;;;;;;;;;20.90;72.60;;;20.37;62.03;99070.13;10368924;28;1913;-70
2023/08/27 08:27:31;;;;;;;;;;;20.90;72.70;;;20.36;62.04;99074.56;10369349;28;933;-70
2023/08/27 08:32:26;;;;;;;;;;;20.90;72.80;;;20.39;62.15;99093.84;10369858;28;1167;-72
2023/08/27 08:37:22;;;;;;;;;;;20.90;73.00;;;20.38;62.09;99090.34;10352070;28;747;-71
2023/08/27 08:42:17;;;;;;;;;;;20.90;72.80;;;20.38;62.28;99092.97;10368595;28;1973;-72
2023/08/27 08:47:13;;;;;;;;;;;21.00;73.40;;;20.39;62.27;99085.91;10368510;28;808;-72
2023/08/27 08:52:09;;;;;;;;;;;20.90;73.10;;;20.40;62.35;99100.84;10368503;28;827;-71
2023/08/27 08:57:04;;;;;;;;;;;20.90;73.10;;;20.40;62.22;99098.19;10368226;28;1005;-72
2023/08/27 09:01:59;;;;;;;;;;;20.90;73.10;;;20.40;62.36;99091.09;10368845;28;1961;-71
2023/08/27 09:06:55;;;;;;;;;;;21.00;73.30;;;20.40;62.40;99090.25;10365901;28;1100;-71
2023/08/27 09:11:50;;;;;;;;;;;21.00;73.30;;;20.39;62.42;99078.81;10367445;28;882;-72
2023/08/27 09:16:46;;;;;;;;;;;21.00;73.50;;;20.39;62.42;99088.56;10367086;28;962;-71
2023/08/27 09:21:41;;;;;;;;;;;20.90;73.60;;;20.39;62.75;99068.22;10367417;28;1910;-70
2023/08/27 09:26:38;;;;;;;;;;;20.90;73.80;;;20.38;62.57;99079.75;10366044;28;871;-71
2023/08/27 09:31:33;;;;;;;;;;;20.90;73.80;;;20.39;62.57;99077.97;10366747;28;1294;-71
2023/08/27 09:36:29;;;;;;;;;;;20.90;73.90;;;20.38;62.80;99076.25;10367053;28;937;-71
2023/08/27 09:41:24;;;;;;;;;;;20.90;73.90;;;20.36;62.62;99071.94;10340820;28;1975;-71
2023/08/27 09:46:19;;;;;;;;;;;20.90;73.70;;;20.35;62.74;99056.97;10360915;28;1054;-71
2023/08/27 09:51:15;;;;;;;;;;;20.90;73.70;;;20.35;62.57;99050.84;10325398;28;789;-71
2023/08/27 09:56:10;;;;;;;;;;;20.90;73.70;;;20.35;62.67;99050.84;10325192;28;870;-71
2023/08/27 10:01:06;;;;;;;;;;;20.90;74.50;;;20.29;62.77;99036.22;10325032;28;1965;-72
2023/08/27 10:06:01;;;;;;;;;;;20.80;73.70;;;20.29;62.54;99036.22;10324782;28;922;-72
2023/08/27 10:10:57;;;;;;;;;;;20.90;74.10;;;20.29;62.70;99044.16;10325164;28;875;-71
2023/08/27 10:15:52;;;;;;;;;;;20.80;73.40;;;20.29;62.62;99032.72;10324291;28;931;-72
2023/08/27 10:20:47;;;;;;;;;;;20.80;73.30;;;20.27;62.31;99037.25;10324541;28;1968;-72
2023/08/27 10:25:43;;;;;;;;;;;20.80;73.30;;;20.27;62.52;99035.47;10325178;28;855;-71
2023/08/27 10:30:38;;;;;;;;;;;20.80;73.10;;;20.25;62.41;99040.03;10324778;28;1313;-70
2023/08/27 10:35:34;;;;;;;;;;;20.80;73.10;;;20.27;62.34;99031.97;10324483;28;925;-70
2023/08/27 10:40:29;;;;;;;;;;;20.80;73.00;;;20.27;62.43;99031.97;10324166;28;1922;-71
2023/08/27 10:45:25;;;;;;;;;;;20.80;73.00;;;20.25;62.46;99021.50;10324141;28;835;-70
2023/08/27 10:50:21;;;;;;;;;;;20.80;73.20;;;20.26;62.37;99023.19;10323656;28;859;-69
2023/08/27 10:55:16;;;;;;;;;;;20.80;73.00;;;20.33;62.19;99031.56;10323955;28;976;-70
2023/08/27 11:00:12;;;;;;;;;;;20.80;73.90;;;20.33;62.08;99021.84;10324592;28;890;-71
2023/08/27 11:05:07;;;;;;;;;;;20.80;73.90;;;20.38;62.34;99012.75;10327455;28;1973;-72
2023/08/27 11:10:04;;;;;;;;;;;20.90;73.30;;;20.40;62.37;99008.19;10364670;28;914;-71
2023/08/27 11:14:59;;;;;;;;;;;20.90;73.50;;;20.45;62.36;99019.34;10369586;28;802;-72
2023/08/27 11:19:55;;;;;;;;;;;20.90;73.90;;;20.45;62.73;99012.22;10372214;28;965;-72
2023/08/27 11:24:50;;;;;;;;;;;20.90;74.30;;;20.45;62.76;99011.41;10371850;28;1937;-71
2023/08/27 11:29:46;;;;;;;;;;;20.90;74.40;;;20.46;62.83;99011.31;10371084;28;1242;-70
2023/08/27 11:34:41;;;;;;;;;;;20.90;74.50;;;20.46;62.69;99018.38;10371748;28;900;-71
2023/08/27 11:39:37;;;;;;;;;;;20.90;74.10;;;20.51;62.53;99008.34;10353137;28;735;-71
2023/08/27 11:44:32;;;;;;;;;;;21.00;74.00;;;20.52;62.54;99020.63;10370825;28;1906;-71
2023/08/27 11:49:28;;;;;;;;;;;21.00;73.90;;;20.48;62.34;99016.47;10369970;28;937;-71
2023/08/27 11:54:28;;;;;;;;;;;21.00;73.80;;;20.48;62.62;99019.13;10371247;28;869;-71
2023/08/27 11:59:24;;;;;;;;;;;21.00;73.80;;;20.48;62.41;99008.53;10370643;28;806;-70
2023/08/27 12:04:19;;;;;;;;;;;21.00;73.60;;;20.43;62.35;99002.69;10370237;28;1981;-71
2023/08/27 12:09:14;;;;;;;;;;;20.90;73.20;;;20.36;62.12;99003.13;10369370;28;945;-72
2023/08/27 12:14:10;;;;;;;;;;;20.90;73.00;;;20.38;61.67;99003.00;10369829;28;918;-71
2023/08/27 12:19:05;;;;;;;;;;;20.90;72.10;;;20.31;61.37;98988.50;10369671;28;870;-71
2023/08/27 12:24:01;;;;;;;;;;;20.80;71.60;;;20.27;61.33;98985.19;10368676;28;1894;-72
2023/08/27 12:28:56;;;;;;;;;;;20.80;70.70;;;20.34;60.38;98978.53;10369138;28;1396;-70
2023/08/27 12:33:52;;;;;;;;;;;20.80;70.00;;;20.40;59.79;98979.09;10370409;28;929;-72
2023/08/27 12:38:47;;;;;;;;;;;20.90;69.10;;;20.39;59.92;98972.94;10368799;28;918;-70
2023/08/27 12:43:42;;;;;;;;;;;20.90;69.60;;;20.38;59.96;98970.38;10368733;28;1963;-71
2023/08/27 12:48:38;;;;;;;;;;;20.90;69.70;;;20.37;60.04;98966.91;10367978;28;835;-71
2023/08/27 12:53:33;;;;;;;;;;;20.90;69.40;;;20.40;59.99;98974.63;10368999;28;867;-71
2023/08/27 12:58:29;;;;;;;;;;;20.90;69.70;;;20.42;59.62;98982.47;10368201;28;769;-71
2023/08/27 13:03:24;;;;;;;;;;;20.90;69.00;;;20.41;59.95;98975.47;10368571;28;1957;-71
2023/08/27 13:08:19;;;;;;;;;;;20.90;69.10;;;20.45;59.69;98966.41;10367638;28;1203;-72
2023/08/27 13:13:15;;;;;;;;;;;20.90;69.00;;;20.50;59.62;98967.78;10367821;28;850;-71
2023/08/27 13:18:10;;;;;;;;;;;20.90;68.80;;;20.53;59.52;98964.91;10367198;28;863;-72
2023/08/27 13:23:06;;;;;;;;;;;21.00;68.60;;;20.56;59.73;98959.44;10367171;28;1906;-72
2023/08/27 13:28:02;;;;;;;;;;;21.00;69.20;;;20.60;59.46;98960.09;10366931;28;1160;-71
2023/08/27 13:33:00;;;;;;;;;;;21.00;68.90;;;20.65;59.56;98954.50;10364717;28;1017;-72
2023/08/27 13:37:56;;;;;;;;;;;21.00;68.80;;;20.70;59.47;98953.25;10366531;28;951;-70
2023/08/27 13:42:52;;;;;;;;;;;21.10;68.90;;;20.64;59.70;98956.28;10366729;28;1926;-71
2023/08/27 13:47:47;;;;;;;;;;;21.10;69.20;;;20.69;59.77;98970.06;10367850;28;854;-72
2023/08/27 13:52:42;;;;;;;;;;;21.10;68.90;;;20.59;60.05;98958.38;10367087;28;867;-72
2023/08/27 13:57:38;;;;;;;;;;;21.10;69.50;;;20.55;60.21;98965.69;10365692;28;846;-71
2023/08/27 14:02:33;;;;;;;;;;;21.10;69.80;;;20.51;60.43;98965.97;10366361;28;1960;-69
2023/08/27 14:07:28;;;;;;;;;;;21.00;69.90;;;20.51;60.35;98968.63;10366764;28;795;-69
2023/08/27 14:12:24;;;;;;;;;;;21.00;69.90;;;20.47;60.50;98981.22;10366494;28;827;-69
2023/08/27 14:17:21;;;;;;;;;;;21.00;69.90;;;20.48;60.62;98984.72;10365898;28;799;-69
2023/08/27 14:22:16;;;;;;;;;;;21.00;70.10;;;20.47;60.38;98989.16;10365863;28;1961;-70
2023/08/27 14:27:11;;;;;;;;;;;21.00;70.00;;;20.46;60.27;98998.06;10366144;28;827;-70
2023/08/27 14:32:07;;;;;;;;;;;21.00;69.80;;;20.41;60.43;99045.16;10366052;28;1302;-70
2023/08/27 14:37:02;;;;;;;;;;;21.00;69.10;;;20.38;60.63;99077.09;10365600;28;847;-70
2023/08/27 14:41:58;;;;;;;;;;;21.00;70.30;;;20.32;60.71;99065.13;10366075;28;1906;-70
2023/08/27 14:46:53;;;;;;;;;;;20.90;70.40;;;20.30;61.03;99072.34;10366176;28;929;-69
2023/08/27 14:51:48;;;;;;;;;;;20.90;70.70;;;20.34;60.93;99060.59;10373184;28;769;-69
2023/08/27 14:56:45;;;;;;;;;;;20.90;70.80;;;20.35;60.71;99056.97;10372487;28;941;-69
2023/08/27 15:01:41;;;;;;;;;;;20.90;70.60;;;20.73;59.81;99045.72;10372711;28;1902;-70
2023/08/27 15:06:36;;;;;;;;;;;21.00;70.00;;;20.91;59.35;99037.50;10373294;28;926;-69
2023/08/27 15:11:31;;;;;;;;;;;21.10;69.80;;;21.01;59.10;99041.19;10371924;28;835;-69
2023/08/27 15:16:27;;;;;;;;;;;21.20;69.80;;;21.07;59.19;99047.91;10371910;28;957;-69
2023/08/27 15:21:22;;;;;;;;;;;21.20;70.00;;;21.13;59.05;99031.56;10363049;28;1906;-69
2023/08/27 15:26:18;;;;;;;;;;;21.20;70.00;;;21.15;59.16;99019.06;10330769;28;943;-69
2023/08/27 15:31:14;;;;;;;;;;;21.30;70.10;;;21.11;59.48;99020.22;10330910;28;1302;-69
2023/08/27 15:36:09;;;;;;;;;;;21.30;70.30;;;20.94;59.83;99026.69;10329846;28;1712;-70
2023/08/27 15:41:04;;;;;;;;;;;21.30;70.40;;;20.76;60.43;99045.50;10330605;28;1914;-68
2023/08/27 15:46:00;;;;;;;;;;;21.20;70.40;;;20.65;60.69;99041.88;10330795;28;851;-69
2023/08/27 15:50:55;;;;;;;;;;;21.20;70.60;;;20.61;60.65;99046.53;10329768;28;906;-69
2023/08/27 15:55:51;;;;;;;;;;;21.10;70.40;;;20.60;60.54;99044.84;10329616;28;889;-69
2023/08/27 16:00:46;;;;;;;;;;;21.10;70.30;;;20.57;60.67;99047.69;10327832;28;1906;-69
2023/08/27 16:05:41;;;;;;;;;;;21.10;70.30;;;20.56;60.55;99065.34;10329876;28;823;-69
2023/08/27 16:10:38;;;;;;;;;;;21.10;70.20;;;20.55;60.54;99058.38;10329231;28;941;-69
2023/08/27 16:15:33;;;;;;;;;;;21.10;70.10;;;20.54;60.48;99061.09;10329542;28;835;-69
2023/08/27 16:20:29;;;;;;;;;;;21.10;70.10;;;20.52;60.32;99055.06;10328443;28;1969;-68
2023/08/27 16:25:24;;;;;;;;;;;21.00;69.80;;;20.49;60.37;99048.16;10328900;28;878;-69
2023/08/27 16:30:19;;;;;;;;;;;21.00;69.50;;;20.47;60.50;99043.91;10327972;28;1662;-68
2023/08/27 16:35:15;;;;;;;;;;;21.00;69.80;;;20.45;60.74;99041.34;10327863;28;942;-69
2023/08/27 16:40:10;;;;;;;;;;;21.00;70.60;;;20.47;60.59;99049.22;10328472;28;879;-69
2023/08/27 16:45:05;;;;;;;;;;;21.00;70.70;;;20.44;60.77;99052.06;10327515;28;1975;-69
2023/08/27 16:50:01;;;;;;;;;;;21.00;70.70;;;20.43;60.80;99058.28;10327650;28;843;-69
2023/08/27 16:54:56;;;;;;;;;;;21.00;70.70;;;20.42;60.87;99048.66;10326593;28;926;-69
2023/08/27 16:59:52;;;;;;;;;;;21.00;70.90;;;20.41;60.90;99060.19;10326891;28;861;-69
2023/08/27 17:04:47;;;;;;;;;;;20.90;70.90;;;20.40;60.92;99061.97;10326805;28;1902;-69
2023/08/27 17:09:42;;;;;;;;;;;21.00;71.00;;;20.41;60.91;99068.13;10327680;28;920;-69
2023/08/27 17:14:38;;;;;;;;;;;20.90;71.10;;;20.39;61.05;99070.88;10326744;28;811;-70
2023/08/27 17:19:36;;;;;;;;;;;20.90;71.30;;;20.41;61.32;99084.00;10326919;28;870;-70
2023/08/27 17:24:31;;;;;;;;;;;20.90;71.60;;;20.41;61.34;99084.88;10326280;28;1969;-69
2023/08/27 17:29:27;;;;;;;;;;;21.00;71.70;;;20.41;61.23;99086.66;10341001;28;1190;-69
2023/08/27 17:34:22;;;;;;;;;;;20.90;71.60;;;20.39;61.41;99099.16;10367012;28;882;-70
2023/08/27 17:39:18;;;;;;;;;;;21.00;71.90;;;20.36;61.45;99100.19;10366919;28;788;-70
2023/08/27 17:44:13;;;;;;;;;;;20.90;71.80;;;20.34;61.42;99105.59;10366733;28;1909;-70
2023/08/27 17:49:08;;;;;;;;;;;20.90;71.80;;;20.32;61.56;99099.53;10366636;28;930;-70
2023/08/27 17:54:04;;;;;;;;;;;20.90;71.70;;;20.31;61.48;99115.53;10366218;28;926;-70
2023/08/27 17:58:59;;;;;;;;;;;20.90;71.70;;;20.31;61.48;99126.97;10367001;28;828;-70
2023/08/27 18:03:55;;;;;;;;;;;20.90;71.70;;;20.29;61.67;99126.19;10366124;28;1981;-68
2023/08/27 18:08:50;;;;;;;;;;;20.90;71.70;;;20.29;61.72;99135.94;10365641;28;918;-70
2023/08/27 18:13:45;;;;;;;;;;;20.90;71.70;;;20.28;61.61;99139.53;10366518;28;894;-70
2023/08/27 18:18:41;;;;;;;;;;;20.80;71.70;;;20.27;61.77;99148.41;10366592;28;850;-70
2023/08/27 18:23:36;;;;;;;;;;;20.80;71.80;;;20.26;61.76;99158.16;10367954;28;1914;-70
2023/08/27 18:28:32;;;;;;;;;;;20.80;71.90;;;20.24;61.76;99154.75;10373773;28;1363;-69
2023/08/27 18:33:27;;;;;;;;;;;20.80;71.90;;;20.24;61.74;99154.75;10374051;28;785;-69
2023/08/27 18:38:22;;;;;;;;;;;20.80;72.00;;;20.23;61.80;99162.81;10374396;28;784;-69
2023/08/27 18:43:18;;;;;;;;;;;20.80;72.00;;;20.22;61.80;99167.22;10371287;28;1909;-69
2023/08/27 18:48:13;;;;;;;;;;;20.80;71.90;;;20.23;61.79;99168.94;10373100;28;860;-70
2023/08/27 18:53:08;;;;;;;;;;;20.80;71.70;;;20.21;61.81;99170.81;10372496;28;914;-70
2023/08/27 18:58:04;;;;;;;;;;;20.80;71.70;;;20.21;61.83;99181.41;10373813;28;838;-70
2023/08/27 19:02:59;;;;;;;;;;;20.80;71.80;;;20.20;61.84;99187.66;10372866;28;1902;-70
2023/08/27 19:07:57;;;;;;;;;;;20.80;71.90;;;20.19;61.72;99193.03;10372601;28;866;-70
2023/08/27 19:12:53;;;;;;;;;;;20.80;71.90;;;20.18;61.97;99200.13;10373071;28;795;-70
2023/08/27 19:17:48;;;;;;;;;;;20.80;72.00;;;20.17;61.96;99195.75;10372413;28;850;-70
2023/08/27 19:22:43;;;;;;;;;;;20.80;72.00;;;20.17;61.90;99198.41;10371501;28;1913;-70
2023/08/27 19:27:39;;;;;;;;;;;20.80;72.00;;;20.16;61.91;99204.66;10371646;28;1209;-70
2023/08/27 19:32:34;;;;;;;;;;;20.80;72.00;;;20.16;62.02;99214.41;10371689;28;961;-70
2023/08/27 19:37:30;;;;;;;;;;;20.80;71.90;;;20.16;61.97;99206.47;10371204;28;815;-70
2023/08/27 19:42:25;;;;;;;;;;;20.80;71.90;;;20.14;61.92;99203.91;10371744;28;1918;-70
2023/08/27 19:47:20;;;;;;;;;;;20.80;71.90;;;20.14;61.91;99214.47;10370563;28;909;-68
2023/08/27 19:52:16;;;;;;;;;;;20.70;71.80;;;20.14;61.81;99217.13;10370950;28;815;-69
2023/08/27 19:57:11;;;;;;;;;;;20.70;71.70;;;20.13;61.79;99223.38;10370253;28;857;-69
2023/08/27 20:02:08;;;;;;;;;;;20.70;71.60;;;20.12;61.90;99219.00;10371049;28;1971;-70
2023/08/27 20:07:03;;;;;;;;;;;20.70;71.70;;;20.12;61.85;99221.66;10370361;28;1640;-70
2023/08/27 20:11:59;;;;;;;;;;;20.70;71.70;;;20.12;61.85;99232.22;10370216;28;885;-69
2023/08/27 20:16:54;;;;;;;;;;;20.70;71.60;;;20.10;61.76;99229.69;10370531;28;943;-70
2023/08/27 20:21:50;;;;;;;;;;;20.70;71.60;;;20.09;61.93;99235.06;10369715;28;1914;-70
2023/08/27 20:26:45;;;;;;;;;;;20.70;72.00;;;20.10;61.81;99239.44;10369032;28;922;-70
2023/08/27 20:31:40;;;;;;;;;;;20.70;71.80;;;20.11;62.13;99246.41;10369063;28;1211;-68
2023/08/27 20:36:36;;;;;;;;;;;20.70;72.10;;;20.09;61.92;99245.66;10368715;28;1093;-68
2023/08/27 20:41:31;;;;;;;;;;;20.70;72.00;;;20.06;62.06;99261.72;10363710;28;1910;-69
2023/08/27 20:46:27;;;;;;;;;;;20.70;72.10;;;20.05;62.07;99254.75;10367818;28;966;-69
2023/08/27 20:51:22;;;;;;;;;;;20.60;71.90;;;20.05;61.99;99260.88;10368543;28;801;-69
2023/08/27 20:56:18;;;;;;;;;;;20.70;72.00;;;20.04;61.90;99263.59;10368440;28;787;-69
2023/08/27 21:01:13;;;;;;;;;;;20.60;71.80;;;20.03;61.90;99257.47;10368774;28;1972;-69
2023/08/27 21:06:08;;;;;;;;;;;20.60;71.90;;;20.02;61.99;99254.94;10368116;28;775;-69
2023/08/27 21:11:08;;;;;;;;;;;20.60;71.90;;;20.04;62.02;99271.53;10367890;28;888;-69
2023/08/27 21:16:03;;;;;;;;;;;20.70;71.90;;;20.04;61.98;99282.13;10367682;28;969;-69
2023/08/27 21:20:59;;;;;;;;;;;20.60;71.70;;;20.04;61.88;99292.69;10362329;28;1913;-69
2023/08/27 21:25:54;;;;;;;;;;;20.60;71.70;;;20.03;61.80;99289.22;10366945;28;1106;-69
2023/08/27 21:30:50;;;;;;;;;;;20.60;71.70;;;20.04;61.71;99284.78;10388884;28;1283;-69
2023/08/27 21:35:45;;;;;;;;;;;20.60;71.60;;;20.03;61.81;99286.56;10408302;28;765;-69
2023/08/27 21:40:43;;;;;;;;;;;20.60;71.80;;;20.03;61.94;99288.38;10370831;28;1925;-69
2023/08/27 21:45:38;;;;;;;;;;;20.60;71.70;;;20.03;61.98;99296.31;10357623;28;1082;-68
2023/08/27 21:50:33;;;;;;;;;;;20.60;71.80;;;20.04;61.97;99308.56;10365155;28;1051;-69
2023/08/27 21:55:29;;;;;;;;;;;20.60;72.00;;;20.02;62.09;99306.03;10365877;28;838;-69
2023/08/27 22:00:24;;;;;;;;;;;20.60;72.10;;;20.02;62.06;99300.75;10366845;28;850;-69
2023/08/27 22:05:19;;;;;;;;;;;20.60;72.10;;;20.03;61.98;99298.94;10365414;28;1902;-69
2023/08/27 22:10:15;;;;;;;;;;;20.60;72.20;;;20.03;62.11;99299.78;10365948;28;844;-69
2023/08/27 22:15:10;;;;;;;;;;;20.60;72.20;;;20.03;62.02;99298.94;10366100;28;1183;-69
2023/08/27 22:20:06;;;;;;;;;;;20.60;72.10;;;20.03;62.13;99283.06;10365825;28;957;-68
2023/08/27 22:25:01;;;;;;;;;;;20.60;72.20;;;20.00;62.25;99294.69;10365941;28;1969;-71
2023/08/27 22:29:57;;;;;;;;;;;20.60;72.40;;;20.01;62.03;99285.81;10365766;28;1155;-71
2023/08/27 22:34:52;;;;;;;;;;;20.60;72.20;;;20.00;62.06;99297.34;10365675;28;970;-71
2023/08/27 22:39:48;;;;;;;;;;;20.60;72.10;;;20.00;62.13;99310.56;10366328;28;876;-71
2023/08/27 22:44:43;;;;;;;;;;;20.60;72.00;;;19.99;62.05;99310.63;10365648;28;1890;-70